Kezdőlap
METAR-TAF:

METAR-TAF

Repülőterek :

Guilin, Kína

földrajzi szélesség: 25-20N, földrajzi hosszúság: 110-18E, magasság: 166 m

Jelenlegi meteorológiai megfigyelések

A jelentés 39 perccel ezelõtt készült, 02:00 UTC
Különbözõ irányokból fújó szél 2 kt
Hőmérséklet 10°C
Páratartalom 71%
Légköri nyomás 1025 hPa
Látótávolság: 8000 m
Szórványos felhőzet 5000 lábon
Szakadozott felhőzet 6600 lábon

METAR: ZGKL 230200Z VRB01MPS 8000 SCT050 BKN066 10/05 Q1025 NOSIG

Idő: 10:39 (02:39 UTC)

Előrejelzés

A jelentés 7 órával és 26 perccel ezelõtt készült, 19:13 UTC
Az előrejelzés 23-én 00 óra UTC és 23-én 24 óra UTC között érvényes
Északkeleti szél 6 kt
Látótávolság 10 km, vagy több
felhőtlen 1500 m magasságban, és nincs gomolyfelhõ

TAF: ZGKL 221913Z 2300/2324 05003MPS CAVOK TX16/2308Z TN06/2322Z

Meteorológiai megfigyelések és előrejelzések több, mint 4000 repülőtéren (METAR és TAF jelentéseket).

A térképen piros és sárga pontok jelzik az elérhető meteorológiai állomásokat.

Mozgassa az egeret a pont fölött, hogy megjelenjen az állomás neve.

Azután kattintson az időjárási megfigyelések és előrejelzések megtekintéséhez.

A térkép megváltoztatása: kattintson a fekete keresztel jelölt zöld gombra ráközelítéshez, a vonallal jelölt zöld gombra távolításhoz, vagy a zöld nyilakra a szomszédos térképek eléréséhez.


METAR-TAF: